createdAt,value
2024-04-24T00:00:41.543Z,6.07
2024-04-24T00:03:10.361Z,6.00
2024-04-24T00:05:37.734Z,6.03
2024-04-24T00:08:05.473Z,6.27
2024-04-24T00:10:32.510Z,6.50
2024-04-24T00:12:59.807Z,6.93
2024-04-24T00:15:26.900Z,5.97
2024-04-24T00:17:53.981Z,6.10
2024-04-24T00:20:21.179Z,6.33
2024-04-24T00:22:51.598Z,6.63
2024-04-24T00:25:19.677Z,6.50
2024-04-24T00:27:46.674Z,5.70
2024-04-24T00:30:14.405Z,6.23
2024-04-24T00:32:42.299Z,5.93
2024-04-24T00:35:09.671Z,5.13
2024-04-24T00:37:40.036Z,4.90
2024-04-24T00:40:09.357Z,4.70
2024-04-24T00:42:36.820Z,4.80
2024-04-24T00:45:04.289Z,4.33
2024-04-24T00:47:33.081Z,5.00
2024-04-24T00:50:02.440Z,5.10
2024-04-24T00:52:30.002Z,5.13
2024-04-24T00:54:57.421Z,5.43
2024-04-24T00:57:25.152Z,6.10
2024-04-24T00:59:52.522Z,5.90
2024-04-24T01:02:20.134Z,6.10
2024-04-24T01:04:47.326Z,5.90
2024-04-24T01:07:15.007Z,5.40
2024-04-24T01:09:42.091Z,5.70
2024-04-24T01:12:09.383Z,5.93
2024-04-24T01:14:36.591Z,5.50
2024-04-24T01:17:06.360Z,5.50
2024-04-24T01:19:47.338Z,5.80
2024-04-24T01:22:31.223Z,5.13
2024-04-24T01:25:22.484Z,4.90
2024-04-24T01:27:49.925Z,5.60
2024-04-24T01:30:17.007Z,6.10
2024-04-24T01:32:44.128Z,5.90
2024-04-24T01:35:11.337Z,6.00
2024-04-24T01:37:38.922Z,6.07
2024-04-24T01:40:06.593Z,6.43
2024-04-24T01:42:33.687Z,6.30
2024-04-24T01:45:00.734Z,6.40
2024-04-24T01:47:27.830Z,6.73
2024-04-24T01:49:54.908Z,7.10
2024-04-24T01:52:21.926Z,6.30
2024-04-24T01:54:49.074Z,6.50
2024-04-24T01:57:16.061Z,7.10
2024-04-24T01:59:43.081Z,6.53
2024-04-24T02:02:10.193Z,6.37
2024-04-24T02:04:37.358Z,6.80
2024-04-24T02:07:04.405Z,6.10
2024-04-24T02:09:31.365Z,6.17
2024-04-24T02:12:06.451Z,7.13
2024-04-24T02:14:37.429Z,6.60
2024-04-24T02:17:04.523Z,6.60
2024-04-24T02:19:31.585Z,6.33
2024-04-24T02:21:58.564Z,6.00
2024-04-24T02:24:44.149Z,6.40
2024-04-24T02:27:11.227Z,5.93
2024-04-24T02:29:48.087Z,6.33
2024-04-24T02:32:22.031Z,6.00
2024-04-24T02:34:49.117Z,6.47
2024-04-24T02:37:16.153Z,6.50
2024-04-24T02:39:43.189Z,6.10
2024-04-24T02:42:10.241Z,6.90
2024-04-24T02:44:38.099Z,6.93
2024-04-24T02:47:05.270Z,6.60
2024-04-24T02:49:32.305Z,6.63
2024-04-24T02:51:59.310Z,7.13
2024-04-24T02:54:26.338Z,7.17
2024-04-24T02:56:53.795Z,6.60
2024-04-24T02:59:21.397Z,6.40
2024-04-24T03:01:48.656Z,6.90
2024-04-24T03:04:15.785Z,6.80
2024-04-24T03:06:44.375Z,7.13
2024-04-24T03:09:12.173Z,7.43
2024-04-24T03:11:40.530Z,6.63
2024-04-24T03:14:07.986Z,6.67
2024-04-24T03:16:35.553Z,6.73
2024-04-24T03:19:02.814Z,6.90
2024-04-24T03:21:29.861Z,6.77
2024-04-24T03:23:56.891Z,6.80
2024-04-24T03:26:24.007Z,7.00
2024-04-24T03:28:51.139Z,6.63
2024-04-24T03:31:18.209Z,6.37
2024-04-24T03:33:45.331Z,6.33
2024-04-24T03:36:12.661Z,6.77
2024-04-24T03:38:39.681Z,6.87
2024-04-24T03:41:06.782Z,7.10
2024-04-24T03:43:33.792Z,5.90
2024-04-24T03:46:01.309Z,5.30
2024-04-24T03:48:28.348Z,5.40
2024-04-24T03:50:55.344Z,5.47
2024-04-24T03:53:22.473Z,5.93
2024-04-24T03:55:49.696Z,7.93
2024-04-24T03:58:16.723Z,8.47
2024-04-24T04:00:43.793Z,9.63
2024-04-24T04:03:11.288Z,9.73
2024-04-24T04:05:38.830Z,9.77
2024-04-24T04:08:06.355Z,10.93
2024-04-24T04:10:33.394Z,9.67
2024-04-24T04:13:00.448Z,10.27
2024-04-24T04:15:27.473Z,10.70
2024-04-24T04:17:54.889Z,9.70
2024-04-24T04:20:22.225Z,9.83
2024-04-24T04:22:49.359Z,10.13
2024-04-24T04:25:16.470Z,9.50
2024-04-24T04:27:43.938Z,9.60
2024-04-24T04:30:12.089Z,9.33
2024-04-24T04:32:39.173Z,9.47
2024-04-24T04:35:06.466Z,9.90
2024-04-24T04:37:35.224Z,9.43
2024-04-24T04:40:04.663Z,9.40
2024-04-24T04:42:31.716Z,9.73
2024-04-24T04:44:59.151Z,9.23
2024-04-24T04:47:26.738Z,9.03
2024-04-24T04:49:53.999Z,9.13
2024-04-24T04:52:21.038Z,9.23
2024-04-24T04:54:48.061Z,9.80
2024-04-24T04:57:15.096Z,9.23
2024-04-24T04:59:42.140Z,8.80
2024-04-24T05:02:09.158Z,9.43
2024-04-24T05:04:36.266Z,9.13
2024-04-24T05:07:03.489Z,9.10
2024-04-24T05:09:32.090Z,9.30
2024-04-24T05:11:59.345Z,10.00
2024-04-24T05:14:26.585Z,9.27
2024-04-24T05:16:53.770Z,9.67
2024-04-24T05:19:20.882Z,9.67
2024-04-24T05:21:47.973Z,9.13
2024-04-24T05:24:15.833Z,8.30
2024-04-24T05:27:01.900Z,8.67
2024-04-24T05:29:29.444Z,8.53
2024-04-24T05:31:56.567Z,8.90
2024-04-24T05:34:24.674Z,8.70
2024-04-24T05:36:51.761Z,9.53
2024-04-24T05:39:18.801Z,9.23
2024-04-24T05:41:45.927Z,9.23
2024-04-24T05:44:13.229Z,9.77
2024-04-24T05:46:40.526Z,10.80
2024-04-24T05:49:07.637Z,10.00
2024-04-24T05:51:34.602Z,9.50
2024-04-24T05:54:01.649Z,8.43
2024-04-24T05:56:28.759Z,8.03
2024-04-24T05:58:55.911Z,9.00
2024-04-24T06:01:23.008Z,9.17
2024-04-24T06:03:50.076Z,9.53
2024-04-24T06:06:17.235Z,9.00
2024-04-24T06:08:44.242Z,9.20
2024-04-24T06:11:12.124Z,8.90
2024-04-24T06:13:39.284Z,9.20
2024-04-24T06:16:06.946Z,9.93
2024-04-24T06:18:34.081Z,9.53
2024-04-24T06:21:01.202Z,9.73
2024-04-24T06:23:28.233Z,10.30
2024-04-24T06:25:55.338Z,9.97
2024-04-24T06:28:22.354Z,10.00
2024-04-24T06:30:49.369Z,9.80
2024-04-24T06:33:16.624Z,9.43
2024-04-24T06:35:43.921Z,9.17
2024-04-24T06:38:11.036Z,9.40
2024-04-24T06:40:38.277Z,9.30
2024-04-24T06:43:05.375Z,9.10
2024-04-24T06:45:32.478Z,8.47
2024-04-24T06:47:59.812Z,9.20
2024-04-24T06:50:27.133Z,8.60
2024-04-24T06:52:54.216Z,9.10
2024-04-24T06:55:23.009Z,9.23
2024-04-24T06:57:50.056Z,8.70
2024-04-24T07:00:17.251Z,8.70
2024-04-24T07:02:44.352Z,8.90
2024-04-24T07:05:11.579Z,8.90
2024-04-24T07:07:38.614Z,9.73
2024-04-24T07:10:06.051Z,10.13
2024-04-24T07:12:33.121Z,10.27
2024-04-24T07:15:00.373Z,9.50
2024-04-24T07:17:27.556Z,10.05
2024-04-24T07:19:54.833Z,10.50
2024-04-24T07:22:21.881Z,11.07
2024-04-24T07:24:48.951Z,10.75
2024-04-24T07:27:18.269Z,11.00
2024-04-24T07:29:46.085Z,10.60
2024-04-24T07:32:13.240Z,11.40
2024-04-24T07:34:40.266Z,10.52
2024-04-24T07:37:10.223Z,10.68
2024-04-24T07:39:37.257Z,10.48
2024-04-24T07:42:04.436Z,11.10
2024-04-24T07:44:31.533Z,10.60
2024-04-24T07:47:01.576Z,10.32
2024-04-24T07:49:30.540Z,10.20
2024-04-24T07:51:57.590Z,10.30
2024-04-24T07:54:24.713Z,10.18
2024-04-24T07:56:51.834Z,10.00
2024-04-24T07:59:18.978Z,9.88
2024-04-24T08:01:46.032Z,10.40
2024-04-24T08:04:13.764Z,11.07
2024-04-24T08:06:41.474Z,11.20
2024-04-24T08:09:11.585Z,11.30
2024-04-24T08:14:07.217Z,9.68
2024-04-24T08:16:34.982Z,11.50
2024-04-24T08:19:02.089Z,10.80
2024-04-24T08:21:29.220Z,10.75
2024-04-24T08:23:56.285Z,11.10
2024-04-24T08:26:23.641Z,10.27
2024-04-24T08:28:50.753Z,10.27
2024-04-24T08:31:17.886Z,9.80
2024-04-24T08:33:45.300Z,10.07
2024-04-24T08:36:13.612Z,10.27
2024-04-24T08:38:41.232Z,10.20
2024-04-24T08:41:12.743Z,9.27
2024-04-24T08:43:41.796Z,9.80
2024-04-24T08:46:13.185Z,10.57
2024-04-24T08:48:41.894Z,9.05
2024-04-24T08:51:10.824Z,9.60
2024-04-24T08:53:45.176Z,9.60
2024-04-24T08:56:16.861Z,10.15
2024-04-24T08:58:47.802Z,9.10
2024-04-24T09:01:18.195Z,9.60
2024-04-24T09:03:51.322Z,9.75
2024-04-24T09:06:20.418Z,9.95
2024-04-24T09:08:48.236Z,11.07
2024-04-24T09:11:15.381Z,10.23
2024-04-24T09:13:44.724Z,10.73
2024-04-24T09:16:16.291Z,10.77
2024-04-24T09:19:02.696Z,10.60
2024-04-24T09:21:33.266Z,10.80
2024-04-24T09:24:00.613Z,11.30
2024-04-24T09:26:28.175Z,10.55
2024-04-24T09:28:55.379Z,10.77
2024-04-24T09:31:23.587Z,9.82
2024-04-24T09:33:51.656Z,10.15
2024-04-24T09:36:19.024Z,9.90
2024-04-24T09:38:46.798Z,9.57
2024-04-24T09:41:14.822Z,9.65
2024-04-24T09:43:42.056Z,9.50
2024-04-24T09:46:09.195Z,9.90
2024-04-24T09:48:38.090Z,8.77
2024-04-24T09:51:11.162Z,8.93
2024-04-24T09:53:38.615Z,11.18
2024-04-24T09:56:21.969Z,11.65
2024-04-24T09:58:56.098Z,11.02
2024-04-24T10:01:28.635Z,11.85
2024-04-24T10:03:57.941Z,11.38
2024-04-24T10:06:28.406Z,11.68
2024-04-24T10:08:58.015Z,12.40
2024-04-24T10:11:33.668Z,11.43
2024-04-24T10:14:03.396Z,11.65
2024-04-24T10:16:31.762Z,11.15
2024-04-24T10:19:00.842Z,11.20
2024-04-24T10:21:28.301Z,10.20
2024-04-24T10:23:55.845Z,11.77
2024-04-24T10:26:26.049Z,16.48
2024-04-24T10:28:54.731Z,17.73
2024-04-24T10:31:23.879Z,17.40
2024-04-24T10:33:51.506Z,16.50
2024-04-24T10:36:18.620Z,16.00
2024-04-24T10:38:48.455Z,13.00
2024-04-24T10:41:15.682Z,13.85
2024-04-24T10:43:42.841Z,13.75
2024-04-24T10:46:10.115Z,14.05
2024-04-24T10:49:01.948Z,13.48
2024-04-24T10:51:36.801Z,13.80
2024-04-24T10:54:16.988Z,13.13
2024-04-24T10:56:46.253Z,12.93
2024-04-24T10:59:13.538Z,12.50
2024-04-24T11:01:52.972Z,13.32
2024-04-24T11:04:25.933Z,13.00
2024-04-24T11:06:53.378Z,11.50
2024-04-24T11:09:21.704Z,10.88
2024-04-24T11:11:51.207Z,11.38
2024-04-24T11:14:18.604Z,10.63
2024-04-24T11:16:56.890Z,11.60
2024-04-24T11:19:24.272Z,10.35
2024-04-24T11:21:51.310Z,10.40
2024-04-24T11:24:31.040Z,10.90
2024-04-24T11:26:58.438Z,11.40
2024-04-24T11:29:28.663Z,10.90
2024-04-24T11:31:57.488Z,11.18
2024-04-24T11:34:24.823Z,11.63
2024-04-24T11:36:52.101Z,12.15
2024-04-24T11:39:23.780Z,11.82
2024-04-24T11:41:51.329Z,11.88
2024-04-24T11:44:19.011Z,11.63
2024-04-24T11:46:48.266Z,11.80
2024-04-24T11:49:20.005Z,11.40
2024-04-24T11:51:50.889Z,11.40
2024-04-24T11:54:18.131Z,10.73
2024-04-24T11:56:46.776Z,10.85
2024-04-24T11:59:16.909Z,11.63
2024-04-24T12:01:44.115Z,11.60
2024-04-24T12:04:11.367Z,10.85
2024-04-24T12:06:43.348Z,10.63
2024-04-24T12:09:11.960Z,10.20
2024-04-24T12:11:41.462Z,10.70
2024-04-24T12:14:08.992Z,10.55
2024-04-24T12:16:36.151Z,9.57
2024-04-24T12:19:03.197Z,9.38
2024-04-24T12:21:30.377Z,10.30
2024-04-24T12:23:57.404Z,10.07
2024-04-24T12:26:24.552Z,9.60
2024-04-24T12:28:51.634Z,9.40
2024-04-24T12:31:18.764Z,9.50
2024-04-24T12:33:45.851Z,10.15
2024-04-24T12:36:13.160Z,10.02
2024-04-24T12:38:40.165Z,9.43
2024-04-24T12:41:07.351Z,9.40
2024-04-24T12:43:34.441Z,8.38
2024-04-24T12:46:01.466Z,8.68
2024-04-24T12:48:28.607Z,8.75
2024-04-24T12:50:55.668Z,9.30
2024-04-24T12:53:22.794Z,8.32
2024-04-24T12:55:49.990Z,7.82
2024-04-24T12:58:17.790Z,8.18
2024-04-24T13:00:44.867Z,8.00
2024-04-24T13:03:12.001Z,8.25
2024-04-24T13:05:39.824Z,7.70
2024-04-24T13:08:09.306Z,7.57
2024-04-24T13:10:36.333Z,7.78
2024-04-24T13:13:03.537Z,7.10
2024-04-24T13:15:30.565Z,7.20
2024-04-24T13:17:58.093Z,7.07
2024-04-24T13:20:25.559Z,6.90
2024-04-24T13:22:52.628Z,6.72
2024-04-24T13:25:19.736Z,6.85
2024-04-24T13:27:47.046Z,7.00
2024-04-24T13:30:14.396Z,7.43
2024-04-24T13:32:41.706Z,7.05
2024-04-24T13:35:09.022Z,6.88
2024-04-24T13:37:36.107Z,7.35
2024-04-24T13:40:03.243Z,7.05
2024-04-24T13:42:30.272Z,6.47
2024-04-24T13:44:57.447Z,6.80
2024-04-24T13:47:25.263Z,6.60
2024-04-24T13:49:52.787Z,6.90
2024-04-24T13:52:19.882Z,6.95
2024-04-24T13:54:46.937Z,6.82
2024-04-24T13:57:14.034Z,6.55
2024-04-24T13:59:41.021Z,7.07
2024-04-24T14:02:08.078Z,7.15
2024-04-24T14:04:35.114Z,7.15
2024-04-24T14:07:02.180Z,7.40
2024-04-24T14:09:29.316Z,7.00
2024-04-24T14:11:56.716Z,7.20
2024-04-24T14:14:25.135Z,6.65
2024-04-24T14:16:52.369Z,6.80
2024-04-24T14:19:19.377Z,6.75
2024-04-24T14:21:46.481Z,6.55
2024-04-24T14:24:14.166Z,6.05
2024-04-24T14:26:41.309Z,6.18
2024-04-24T14:29:08.360Z,5.82
2024-04-24T14:31:41.849Z,6.60
2024-04-24T14:34:09.051Z,6.03
2024-04-24T14:36:36.114Z,5.80
2024-04-24T14:39:03.381Z,5.80
2024-04-24T14:41:30.438Z,5.93
2024-04-24T14:43:57.831Z,6.38
2024-04-24T14:46:25.026Z,6.80
2024-04-24T14:48:52.198Z,6.45
2024-04-24T14:51:19.303Z,6.70
2024-04-24T14:53:47.008Z,5.70
2024-04-24T14:56:14.203Z,5.90
2024-04-24T14:58:41.306Z,6.40
2024-04-24T15:01:08.456Z,6.10
2024-04-24T15:03:35.696Z,5.85
2024-04-24T15:06:04.014Z,5.20
2024-04-24T15:08:31.240Z,5.25
2024-04-24T15:10:58.533Z,5.50
2024-04-24T15:13:25.574Z,5.68
2024-04-24T15:15:52.730Z,5.43
2024-04-24T15:18:20.025Z,5.80
2024-04-24T15:20:47.142Z,5.88
2024-04-24T15:23:14.854Z,6.10
2024-04-24T15:25:43.788Z,5.65
2024-04-24T15:28:10.934Z,5.63
2024-04-24T15:30:40.644Z,6.40
2024-04-24T15:33:07.785Z,6.20
2024-04-24T15:35:35.074Z,6.15
2024-04-24T15:38:02.191Z,6.20
2024-04-24T15:40:29.231Z,7.07
2024-04-24T15:42:56.244Z,6.57
2024-04-24T15:45:23.435Z,6.78
2024-04-24T15:47:50.611Z,6.13
2024-04-24T15:50:17.750Z,6.28
2024-04-24T15:52:44.808Z,6.07
2024-04-24T15:55:13.087Z,6.70
2024-04-24T15:57:42.362Z,5.55
2024-04-24T16:00:10.423Z,5.40
2024-04-24T16:02:40.204Z,4.70
2024-04-24T16:05:07.538Z,4.30
2024-04-24T16:07:35.836Z,4.35
2024-04-24T16:10:03.377Z,4.80
2024-04-24T16:12:30.421Z,4.90
2024-04-24T16:14:57.547Z,6.10
2024-04-24T16:17:24.638Z,6.68
2024-04-24T16:19:51.847Z,7.32
2024-04-24T16:22:21.738Z,7.47
2024-04-24T16:24:48.814Z,7.32
2024-04-24T16:27:15.986Z,6.40
2024-04-24T16:29:44.864Z,6.93
2024-04-24T16:32:11.914Z,7.32
2024-04-24T16:34:45.207Z,6.93
2024-04-24T16:37:12.799Z,7.07
2024-04-24T16:39:41.735Z,7.57
2024-04-24T16:42:09.082Z,7.30
2024-04-24T16:44:36.332Z,7.45
2024-04-24T16:47:03.889Z,6.90
2024-04-24T16:49:33.004Z,7.00
2024-04-24T16:52:01.551Z,6.57
2024-04-24T16:54:28.611Z,7.00
2024-04-24T16:56:55.774Z,6.60
2024-04-24T16:59:22.854Z,6.22
2024-04-24T17:01:49.980Z,6.68
2024-04-24T17:04:17.087Z,6.53
2024-04-24T17:06:44.258Z,6.60
2024-04-24T17:09:11.291Z,6.90
2024-04-24T17:11:38.372Z,6.70
2024-04-24T17:14:05.513Z,6.90
2024-04-24T17:16:32.668Z,6.57
2024-04-24T17:19:00.195Z,6.30
2024-04-24T17:21:27.526Z,6.70
2024-04-24T17:23:54.871Z,6.72
2024-04-24T17:26:29.962Z,6.75
2024-04-24T17:29:02.074Z,6.82
2024-04-24T17:31:29.291Z,7.05
2024-04-24T17:33:56.393Z,6.72
2024-04-24T17:36:23.474Z,6.70
2024-04-24T17:38:50.558Z,6.63
2024-04-24T17:41:17.690Z,6.70
2024-04-24T17:43:44.833Z,6.75
2024-04-24T17:46:12.111Z,6.60
2024-04-24T17:48:39.310Z,6.45
2024-04-24T17:51:06.399Z,6.22
2024-04-24T17:53:33.647Z,6.10
2024-04-24T17:56:00.847Z,6.10
2024-04-24T17:58:33.718Z,5.95
2024-04-24T18:01:01.578Z,5.63
2024-04-24T18:03:32.389Z,5.50
2024-04-24T18:06:01.886Z,5.70
2024-04-24T18:08:29.611Z,5.88
2024-04-24T18:10:56.929Z,5.80
2024-04-24T18:13:24.012Z,5.90
2024-04-24T18:15:51.398Z,5.80
2024-04-24T18:18:18.628Z,5.75
2024-04-24T18:20:45.825Z,6.00
2024-04-24T18:23:13.000Z,6.03
2024-04-24T18:25:40.205Z,6.10
2024-04-24T18:28:07.520Z,5.95
2024-04-24T18:30:34.618Z,6.00
2024-04-24T18:33:04.109Z,6.40
2024-04-24T18:35:33.980Z,6.65
2024-04-24T18:38:01.646Z,6.72
2024-04-24T18:40:31.257Z,7.07
2024-04-24T18:42:58.740Z,7.13
2024-04-24T18:45:25.905Z,7.57
2024-04-24T18:47:53.205Z,7.70
2024-04-24T18:50:20.410Z,7.75
2024-04-24T18:52:47.520Z,7.65
2024-04-24T18:55:14.731Z,7.75
2024-04-24T18:57:44.136Z,7.90
2024-04-24T19:00:13.506Z,7.43
2024-04-24T19:02:40.962Z,7.07
2024-04-24T19:05:08.382Z,7.60
2024-04-24T19:07:35.362Z,7.50
2024-04-24T19:10:02.606Z,8.43
2024-04-24T19:12:29.832Z,7.40
2024-04-24T19:14:56.924Z,7.40
2024-04-24T19:17:23.962Z,7.45
2024-04-24T19:19:51.007Z,7.50
2024-04-24T19:22:20.381Z,7.10
2024-04-24T19:24:49.223Z,6.60
2024-04-24T19:27:23.007Z,7.13
2024-04-24T19:29:57.209Z,6.90
2024-04-24T19:32:25.749Z,6.93
2024-04-24T19:34:52.994Z,7.80
2024-04-24T19:37:20.007Z,8.13
2024-04-24T19:39:47.175Z,8.30
2024-04-24T19:42:14.302Z,7.87
2024-04-24T19:44:41.376Z,8.73
2024-04-24T19:47:08.533Z,8.45
2024-04-24T19:49:35.658Z,8.50
2024-04-24T19:52:02.699Z,8.20
2024-04-24T19:54:29.687Z,8.00
2024-04-24T19:56:57.101Z,8.30
2024-04-24T19:59:24.104Z,8.90
2024-04-24T20:01:52.869Z,8.37
2024-04-24T20:04:20.006Z,8.70
2024-04-24T20:06:47.099Z,8.53
2024-04-24T20:09:14.227Z,8.75
2024-04-24T20:11:41.405Z,8.40
2024-04-24T20:14:08.503Z,9.23
2024-04-24T20:16:35.611Z,8.87
2024-04-24T20:19:02.751Z,8.98
2024-04-24T20:21:29.798Z,9.20
2024-04-24T20:23:56.840Z,9.10
2024-04-24T20:26:26.729Z,9.23
2024-04-24T20:28:54.590Z,9.27
2024-04-24T20:31:29.256Z,9.48
2024-04-24T20:33:57.994Z,9.07
2024-04-24T20:36:29.609Z,8.80
2024-04-24T20:39:00.035Z,8.77
2024-04-24T20:41:27.324Z,8.50
2024-04-24T20:43:54.457Z,8.60
2024-04-24T20:46:21.642Z,8.35
2024-04-24T20:48:48.819Z,8.73
2024-04-24T20:51:15.845Z,7.80
2024-04-24T20:53:43.148Z,8.43
2024-04-24T20:56:16.786Z,8.05
2024-04-24T20:58:47.052Z,8.15
2024-04-24T21:01:14.784Z,8.20
2024-04-24T21:03:41.800Z,7.82
2024-04-24T21:06:12.517Z,7.60
2024-04-24T21:08:40.133Z,7.43
2024-04-24T21:11:08.796Z,7.72
2024-04-24T21:13:35.994Z,8.73
2024-04-24T21:16:08.575Z,8.50
2024-04-24T21:18:35.667Z,8.55
2024-04-24T21:21:02.743Z,7.97
2024-04-24T21:23:29.825Z,8.65
2024-04-24T21:26:04.528Z,8.13
2024-04-24T21:28:36.307Z,7.97
2024-04-24T21:31:04.217Z,8.30
2024-04-24T21:33:35.734Z,8.25
2024-04-24T21:36:03.500Z,8.15
2024-04-24T21:38:32.777Z,8.02
2024-04-24T21:40:59.896Z,7.30
2024-04-24T21:43:28.833Z,7.47
2024-04-24T21:45:55.906Z,7.15
2024-04-24T21:48:22.972Z,7.03
2024-04-24T21:50:51.674Z,7.70
2024-04-24T21:53:18.753Z,8.55
2024-04-24T21:55:45.791Z,7.93
2024-04-24T21:58:12.771Z,7.47
2024-04-24T22:00:39.796Z,7.37
2024-04-24T22:03:07.458Z,7.47
2024-04-24T22:05:35.397Z,6.97
2024-04-24T22:08:02.563Z,7.13
2024-04-24T22:10:29.796Z,6.90
2024-04-24T22:13:01.369Z,7.30
2024-04-24T22:15:34.017Z,6.83
2024-04-24T22:18:02.631Z,6.67
2024-04-24T22:20:29.776Z,6.83
2024-04-24T22:22:56.867Z,6.83
2024-04-24T22:25:24.045Z,7.13
2024-04-24T22:27:51.094Z,7.40
2024-04-24T22:30:18.398Z,7.57
2024-04-24T22:32:45.592Z,8.03
2024-04-24T22:35:12.762Z,8.13
2024-04-24T22:37:39.813Z,7.50
2024-04-24T22:40:09.921Z,7.20
2024-04-24T22:42:36.962Z,7.60
2024-04-24T22:45:04.293Z,7.90
2024-04-24T22:47:31.330Z,7.57
2024-04-24T22:49:58.403Z,7.40
2024-04-24T22:52:25.411Z,7.13
2024-04-24T22:54:52.461Z,7.27
2024-04-24T22:57:19.465Z,7.60
2024-04-24T22:59:46.548Z,7.70
2024-04-24T23:02:13.613Z,8.40
2024-04-24T23:04:40.637Z,8.00
2024-04-24T23:07:07.739Z,7.83
2024-04-24T23:09:34.711Z,7.40
2024-04-24T23:12:01.963Z,7.80
2024-04-24T23:14:29.038Z,7.37
2024-04-24T23:16:56.297Z,7.50
2024-04-24T23:19:23.461Z,7.60
2024-04-24T23:21:50.624Z,7.53
2024-04-24T23:24:17.619Z,7.28
2024-04-24T23:26:48.872Z,7.20
2024-04-24T23:29:16.149Z,7.60
2024-04-24T23:31:43.288Z,7.40
2024-04-24T23:34:10.319Z,7.70
2024-04-24T23:36:37.413Z,7.30
2024-04-24T23:39:04.473Z,7.60
2024-04-24T23:41:31.538Z,7.93
2024-04-24T23:43:58.590Z,8.40
2024-04-24T23:46:25.694Z,7.85
2024-04-24T23:48:53.514Z,8.00
2024-04-24T23:51:20.527Z,8.30
2024-04-24T23:53:48.844Z,8.00
2024-04-24T23:56:18.995Z,8.30
2024-04-24T23:58:46.181Z,8.07
